createdAt,value
2022-08-03T00:01:46.132Z,13.60
2022-08-03T00:04:14.346Z,13.60
2022-08-03T00:06:42.598Z,13.60
2022-08-03T00:09:11.532Z,13.50
2022-08-03T00:11:41.030Z,13.50
2022-08-03T00:14:09.580Z,13.50
2022-08-03T00:16:37.723Z,13.50
2022-08-03T00:19:05.989Z,13.40
2022-08-03T00:21:34.215Z,13.40
2022-08-03T00:24:02.289Z,13.30
2022-08-03T00:26:31.762Z,13.40
2022-08-03T00:29:01.250Z,13.30
2022-08-03T00:31:39.831Z,13.30
2022-08-03T00:34:17.541Z,13.30
2022-08-03T00:36:59.064Z,13.30
2022-08-03T00:39:27.173Z,13.20
2022-08-03T00:41:55.295Z,13.30
2022-08-03T00:44:24.744Z,13.20
2022-08-03T00:47:00.561Z,13.20
2022-08-03T00:49:29.627Z,13.20
2022-08-03T00:51:57.925Z,13.20
2022-08-03T00:54:26.881Z,13.20
2022-08-03T00:56:59.893Z,13.20
2022-08-03T00:59:28.952Z,13.20
2022-08-03T01:01:57.227Z,13.10
2022-08-03T01:04:26.765Z,13.10
2022-08-03T01:07:04.517Z,13.10
2022-08-03T01:09:47.641Z,13.00
2022-08-03T01:12:25.273Z,13.00
2022-08-03T01:14:59.740Z,12.90
2022-08-03T01:17:35.377Z,12.90
2022-08-03T01:20:09.167Z,13.00
2022-08-03T01:22:51.593Z,12.90
2022-08-03T01:25:32.797Z,12.90
2022-08-03T01:28:21.029Z,12.90
2022-08-03T01:30:53.585Z,12.90
2022-08-03T01:33:25.425Z,12.90
2022-08-03T01:36:00.782Z,13.00
2022-08-03T01:38:33.261Z,12.90
2022-08-03T01:41:06.914Z,12.90
2022-08-03T01:44:28.686Z,13.00
2022-08-03T01:46:27.575Z,12.90
2022-08-03T01:48:57.324Z,12.90
2022-08-03T01:51:57.874Z,12.90
2022-08-03T01:54:15.753Z,12.90
2022-08-03T01:56:45.274Z,12.90
2022-08-03T01:59:15.691Z,12.90
2022-08-03T02:02:28.074Z,12.90
2022-08-03T02:04:39.534Z,12.90
2022-08-03T02:07:09.080Z,12.80
2022-08-03T02:09:40.030Z,12.80
2022-08-03T02:12:10.721Z,12.80
2022-08-03T02:14:40.610Z,12.80
2022-08-03T02:17:11.976Z,12.80
2022-08-03T02:19:40.797Z,12.70
2022-08-03T02:22:12.987Z,12.80
2022-08-03T02:24:41.947Z,12.80
2022-08-03T02:27:21.754Z,12.80
2022-08-03T02:29:54.020Z,12.80
2022-08-03T02:32:31.055Z,12.80
2022-08-03T02:35:01.749Z,12.70
2022-08-03T02:37:37.455Z,12.70
2022-08-03T02:40:13.999Z,12.70
2022-08-03T02:42:44.594Z,12.60
2022-08-03T02:45:14.498Z,12.60
2022-08-03T02:47:54.036Z,12.60
2022-08-03T02:50:24.538Z,12.60
2022-08-03T02:52:54.418Z,12.60
2022-08-03T02:55:23.997Z,12.60
2022-08-03T02:57:52.872Z,12.60
2022-08-03T03:00:28.443Z,12.50
2022-08-03T03:03:00.439Z,12.50
2022-08-03T03:05:56.235Z,12.50
2022-08-03T03:08:25.851Z,12.40
2022-08-03T03:10:56.051Z,12.40
2022-08-03T03:13:25.054Z,12.40
2022-08-03T03:15:54.015Z,12.40
2022-08-03T03:18:25.083Z,12.40
2022-08-03T03:20:54.132Z,12.40
2022-08-03T03:23:23.276Z,12.40
2022-08-03T03:25:52.778Z,12.30
2022-08-03T03:28:21.214Z,12.40
2022-08-03T03:30:52.643Z,12.30
2022-08-03T03:33:23.183Z,12.40
2022-08-03T03:35:52.921Z,12.40
2022-08-03T03:38:21.614Z,12.40
2022-08-03T03:40:50.086Z,12.40
2022-08-03T03:43:19.570Z,12.40
2022-08-03T03:45:49.002Z,12.50
2022-08-03T03:48:17.318Z,12.50
2022-08-03T03:50:47.245Z,12.50
2022-08-03T03:53:16.618Z,12.50
2022-08-03T03:55:57.861Z,12.60
2022-08-03T03:58:30.766Z,12.60
2022-08-03T04:00:58.948Z,12.80
2022-08-03T04:03:27.145Z,12.90
2022-08-03T04:06:14.350Z,13.30
2022-08-03T04:09:14.381Z,13.80
2022-08-03T04:11:48.739Z,14.40
2022-08-03T04:14:20.965Z,15.10
2022-08-03T04:16:54.655Z,15.80
2022-08-03T04:19:29.363Z,16.40
2022-08-03T04:22:01.810Z,17.30
2022-08-03T04:24:34.886Z,17.90
2022-08-03T04:27:08.097Z,18.70
2022-08-03T04:29:44.769Z,19.40
2022-08-03T04:32:18.123Z,20.00
2022-08-03T04:34:46.567Z,20.50
2022-08-03T04:37:25.607Z,21.10
2022-08-03T04:39:57.645Z,21.60
2022-08-03T04:42:26.954Z,22.00
2022-08-03T04:45:00.859Z,22.40
2022-08-03T04:47:31.003Z,22.70
2022-08-03T04:49:59.279Z,23.10
2022-08-03T04:52:28.817Z,23.40
2022-08-03T04:54:56.925Z,24.00
2022-08-03T04:57:25.210Z,24.40
2022-08-03T05:00:02.131Z,25.00
2022-08-03T05:02:32.188Z,25.10
2022-08-03T05:05:00.627Z,25.60
2022-08-03T05:07:36.602Z,26.00
2022-08-03T05:10:16.100Z,26.30
2022-08-03T05:12:45.625Z,26.50
2022-08-03T05:15:14.012Z,27.40
2022-08-03T05:17:42.909Z,27.90
2022-08-03T05:20:12.754Z,28.20
2022-08-03T05:22:42.269Z,28.20
2022-08-03T05:25:19.154Z,28.50
2022-08-03T05:27:48.055Z,28.90
2022-08-03T05:30:31.240Z,29.00
2022-08-03T05:33:03.813Z,29.80
2022-08-03T05:36:00.766Z,30.30
2022-08-03T05:38:24.128Z,30.50
2022-08-03T05:41:20.335Z,31.80
2022-08-03T05:43:45.146Z,31.80
2022-08-03T05:46:13.419Z,32.40
2022-08-03T05:48:41.668Z,32.20
2022-08-03T05:51:11.919Z,32.20
2022-08-03T05:53:42.859Z,32.70
2022-08-03T05:56:13.616Z,33.20
2022-08-03T05:58:44.794Z,33.60
2022-08-03T06:01:13.043Z,34.20
2022-08-03T06:03:41.243Z,34.40
2022-08-03T06:06:09.615Z,35.10
2022-08-03T06:08:38.301Z,34.80
2022-08-03T06:11:07.901Z,35.60
2022-08-03T06:13:36.189Z,35.90
2022-08-03T06:16:04.519Z,36.30
2022-08-03T06:18:32.847Z,36.50
2022-08-03T06:21:14.239Z,36.60
2022-08-03T06:23:52.866Z,38.00
2022-08-03T06:26:25.200Z,38.10
2022-08-03T06:28:54.452Z,38.00
2022-08-03T06:31:26.215Z,38.50
2022-08-03T06:34:32.473Z,39.20
2022-08-03T06:36:58.465Z,38.80
2022-08-03T06:39:30.179Z,39.30
2022-08-03T06:41:59.792Z,39.40
2022-08-03T06:44:27.992Z,39.70
2022-08-03T06:46:56.086Z,39.90
2022-08-03T06:49:24.245Z,39.80
2022-08-03T06:52:04.118Z,40.60
2022-08-03T06:54:35.762Z,40.20
2022-08-03T06:57:06.450Z,39.40
2022-08-03T07:00:06.528Z,39.70
2022-08-03T07:02:22.704Z,39.60
2022-08-03T07:04:51.208Z,39.50
2022-08-03T07:07:20.684Z,39.20
2022-08-03T07:09:57.088Z,39.50
2022-08-03T07:12:29.062Z,39.80
2022-08-03T07:15:01.368Z,40.10
2022-08-03T07:17:31.387Z,40.50
2022-08-03T07:19:59.508Z,40.70
2022-08-03T07:22:28.484Z,41.10
2022-08-03T07:24:56.637Z,41.30
2022-08-03T07:27:27.164Z,41.00
2022-08-03T07:29:57.020Z,41.70
2022-08-03T07:32:25.812Z,41.60
2022-08-03T07:34:58.480Z,41.00
2022-08-03T07:37:28.600Z,40.90
2022-08-03T07:39:56.707Z,40.90
2022-08-03T07:42:25.065Z,41.00
2022-08-03T07:44:53.190Z,42.10
2022-08-03T07:47:24.845Z,41.70
2022-08-03T07:49:53.507Z,42.10
2022-08-03T07:52:39.484Z,42.40
2022-08-03T07:55:08.532Z,42.60
2022-08-03T07:57:36.790Z,41.80
2022-08-03T08:00:07.545Z,42.10
2022-08-03T08:02:42.850Z,42.20
2022-08-03T08:05:12.666Z,41.80
2022-08-03T08:07:41.513Z,42.20
2022-08-03T08:10:11.043Z,42.10
2022-08-03T08:12:39.678Z,42.00
2022-08-03T08:15:09.614Z,42.00
2022-08-03T08:17:47.449Z,41.00
2022-08-03T08:20:28.488Z,41.80
2022-08-03T08:23:01.503Z,42.80
2022-08-03T08:25:31.517Z,43.10
2022-08-03T08:28:22.325Z,42.50
2022-08-03T08:30:50.867Z,42.30
2022-08-03T08:33:22.629Z,42.70
2022-08-03T08:35:53.551Z,42.80
2022-08-03T08:38:21.828Z,42.90
2022-08-03T08:40:50.772Z,43.80
2022-08-03T08:43:18.897Z,43.30
2022-08-03T08:45:48.514Z,42.10
2022-08-03T08:48:19.272Z,42.00
2022-08-03T08:50:49.634Z,42.00
2022-08-03T08:53:22.775Z,41.50
2022-08-03T08:56:00.671Z,41.40
2022-08-03T08:58:31.401Z,41.70
2022-08-03T09:00:59.881Z,41.70
2022-08-03T09:03:29.958Z,41.90
2022-08-03T09:06:02.335Z,41.30
2022-08-03T09:08:31.359Z,40.80
2022-08-03T09:10:59.903Z,41.40
2022-08-03T09:13:29.284Z,41.40
2022-08-03T09:16:14.571Z,41.20
2022-08-03T09:18:43.692Z,41.20
2022-08-03T09:21:31.093Z,40.80
2022-08-03T09:24:04.287Z,40.60
2022-08-03T09:26:34.631Z,40.70
2022-08-03T09:29:11.226Z,41.10
2022-08-03T09:31:44.365Z,40.60
2022-08-03T09:34:14.790Z,41.00
2022-08-03T09:36:46.563Z,40.80
2022-08-03T09:39:16.453Z,40.20
2022-08-03T09:41:46.426Z,40.60
2022-08-03T09:44:24.251Z,40.50
2022-08-03T09:46:55.723Z,40.50
2022-08-03T09:49:25.106Z,40.60
2022-08-03T09:52:33.053Z,40.50
2022-08-03T09:54:43.892Z,40.50
2022-08-03T09:57:23.242Z,40.60
2022-08-03T09:59:54.988Z,40.60
2022-08-03T10:02:41.262Z,40.60
2022-08-03T10:05:11.183Z,39.20
2022-08-03T10:07:50.719Z,38.80
2022-08-03T10:10:30.994Z,39.80
2022-08-03T10:13:01.448Z,38.30
2022-08-03T10:16:24.208Z,37.60
2022-08-03T10:18:18.182Z,37.00
2022-08-03T10:20:50.538Z,37.00
2022-08-03T10:23:21.587Z,37.90
2022-08-03T10:25:53.951Z,38.60
2022-08-03T10:28:23.334Z,38.40
2022-08-03T10:30:54.088Z,38.60
2022-08-03T10:33:52.120Z,39.00
2022-08-03T10:36:15.293Z,38.30
2022-08-03T10:38:52.616Z,38.50
2022-08-03T10:41:22.391Z,38.70
2022-08-03T10:43:54.294Z,37.00
2022-08-03T10:46:22.958Z,35.70
2022-08-03T10:48:52.871Z,34.60
2022-08-03T10:51:21.856Z,34.00
2022-08-03T10:53:55.383Z,33.50
2022-08-03T10:57:13.355Z,33.00
2022-08-03T11:00:05.747Z,32.70
2022-08-03T11:03:07.445Z,32.30
2022-08-03T11:05:38.322Z,32.00
2022-08-03T11:08:28.107Z,31.90
2022-08-03T11:11:00.350Z,31.90
2022-08-03T11:13:31.989Z,32.00
2022-08-03T11:16:04.892Z,31.30
2022-08-03T11:18:34.841Z,30.80
2022-08-03T11:21:04.217Z,30.60
2022-08-03T11:24:04.410Z,30.80
2022-08-03T11:26:35.757Z,30.50
2022-08-03T11:29:29.024Z,30.70
2022-08-03T11:31:57.187Z,31.10
2022-08-03T11:34:25.958Z,31.30
2022-08-03T11:37:30.197Z,31.30
2022-08-03T11:40:02.667Z,31.20
2022-08-03T11:42:45.195Z,31.10
2022-08-03T11:45:13.592Z,31.20
2022-08-03T11:47:50.782Z,31.30
2022-08-03T11:50:21.457Z,31.30
2022-08-03T11:52:50.579Z,31.40
2022-08-03T11:55:21.974Z,31.50
2022-08-03T11:59:10.765Z,31.60
2022-08-03T12:00:40.528Z,31.60
2022-08-03T12:03:11.169Z,31.40
2022-08-03T12:05:51.129Z,31.30
2022-08-03T12:08:33.422Z,31.40
2022-08-03T12:11:03.121Z,31.60
2022-08-03T12:14:35.718Z,31.60
2022-08-03T12:16:29.728Z,31.50
2022-08-03T12:18:58.951Z,31.10
2022-08-03T12:21:27.351Z,31.20
2022-08-03T12:23:59.090Z,31.20
2022-08-03T12:26:27.986Z,31.50
2022-08-03T12:28:58.288Z,31.70
2022-08-03T12:31:26.719Z,31.50
2022-08-03T12:34:00.390Z,31.60
2022-08-03T12:36:29.090Z,31.80
2022-08-03T12:38:59.102Z,31.60
2022-08-03T12:41:35.413Z,31.60
2022-08-03T12:44:06.431Z,31.60
2022-08-03T12:46:36.830Z,31.40
2022-08-03T12:49:07.988Z,31.30
2022-08-03T12:51:37.987Z,31.40
2022-08-03T12:54:07.186Z,31.40
2022-08-03T12:56:35.657Z,31.50
2022-08-03T12:59:34.779Z,31.70
2022-08-03T13:02:16.853Z,31.70
2022-08-03T13:04:47.363Z,31.50
2022-08-03T13:07:16.839Z,30.80
2022-08-03T13:09:47.721Z,30.70
2022-08-03T13:12:17.688Z,30.70
2022-08-03T13:14:49.354Z,30.80
2022-08-03T13:17:18.053Z,31.00
2022-08-03T13:19:47.149Z,31.20
2022-08-03T13:22:16.863Z,31.50
2022-08-03T13:24:46.334Z,31.60
2022-08-03T13:28:01.936Z,31.60
2022-08-03T13:30:04.710Z,31.60
2022-08-03T13:32:33.659Z,31.70
2022-08-03T13:35:02.594Z,31.70
2022-08-03T13:37:32.308Z,31.80
2022-08-03T13:40:03.075Z,31.90
2022-08-03T13:42:34.480Z,31.90
2022-08-03T13:45:05.386Z,32.00
2022-08-03T13:47:33.604Z,31.90
2022-08-03T13:50:03.039Z,32.00
2022-08-03T13:52:35.606Z,32.10
2022-08-03T13:55:05.405Z,32.20
2022-08-03T13:58:03.025Z,32.10
2022-08-03T14:00:28.232Z,32.20
2022-08-03T14:03:03.828Z,32.30
2022-08-03T14:05:35.898Z,32.30
2022-08-03T14:08:05.680Z,32.00
2022-08-03T14:10:35.413Z,32.20
2022-08-03T14:13:03.822Z,32.30
2022-08-03T14:15:37.856Z,32.20
2022-08-03T14:18:07.295Z,32.00
2022-08-03T14:20:50.099Z,32.10
2022-08-03T14:23:19.981Z,32.20
2022-08-03T14:25:51.769Z,32.10
2022-08-03T14:28:22.641Z,32.20
2022-08-03T14:30:52.859Z,32.20
2022-08-03T14:33:21.189Z,32.20
2022-08-03T14:35:50.429Z,32.20
2022-08-03T14:38:19.667Z,32.20
2022-08-03T14:40:48.104Z,32.10
2022-08-03T14:43:18.001Z,32.10
2022-08-03T14:45:46.353Z,32.00
2022-08-03T14:50:33.248Z,31.90
2022-08-03T14:51:06.192Z,32.00
2022-08-03T14:53:35.711Z,32.00
2022-08-03T14:56:09.443Z,32.00
2022-08-03T14:58:38.573Z,32.00
2022-08-03T15:02:02.978Z,32.00
2022-08-03T15:03:56.905Z,32.00
2022-08-03T15:06:25.714Z,32.20
2022-08-03T15:09:13.685Z,32.10
2022-08-03T15:11:42.645Z,32.10
2022-08-03T15:14:10.847Z,32.10
2022-08-03T15:16:42.030Z,32.10
2022-08-03T15:20:00.341Z,32.00
2022-08-03T15:22:00.948Z,31.80
2022-08-03T15:24:29.502Z,31.70
2022-08-03T15:26:57.621Z,31.50
2022-08-03T15:30:08.221Z,31.50
2022-08-03T15:32:13.854Z,31.50
2022-08-03T15:34:50.374Z,31.50
2022-08-03T15:37:19.967Z,31.50
2022-08-03T15:39:59.622Z,31.50
2022-08-03T15:42:29.617Z,31.60
2022-08-03T15:44:58.133Z,31.70
2022-08-03T15:47:26.688Z,31.70
2022-08-03T15:49:56.271Z,31.60
2022-08-03T15:52:24.528Z,31.70
2022-08-03T15:54:52.941Z,31.50
2022-08-03T15:57:21.456Z,31.40
2022-08-03T15:59:49.801Z,31.40
2022-08-03T16:02:18.033Z,31.40
2022-08-03T16:04:46.186Z,31.40
2022-08-03T16:07:16.360Z,31.30
2022-08-03T16:09:44.595Z,31.30
2022-08-03T16:12:16.384Z,31.30
2022-08-03T16:14:52.928Z,31.20
2022-08-03T16:17:22.591Z,31.20
2022-08-03T16:19:51.066Z,31.10
2022-08-03T16:22:24.511Z,31.20
2022-08-03T16:24:53.263Z,31.20
2022-08-03T16:27:37.500Z,31.10
2022-08-03T16:30:11.405Z,31.20
2022-08-03T16:32:39.958Z,31.20
2022-08-03T16:35:08.897Z,31.20
2022-08-03T16:37:39.490Z,31.30
2022-08-03T16:40:19.323Z,31.20
2022-08-03T16:42:48.072Z,31.10
2022-08-03T16:45:16.213Z,31.00
2022-08-03T16:47:44.332Z,31.00
2022-08-03T16:50:19.110Z,31.00
2022-08-03T16:52:49.151Z,31.00
2022-08-03T16:55:42.945Z,31.00
2022-08-03T16:58:06.887Z,30.90
2022-08-03T17:00:41.275Z,30.80
2022-08-03T17:03:19.083Z,30.80
2022-08-03T17:05:50.212Z,30.60
2022-08-03T17:08:26.170Z,30.60
2022-08-03T17:10:55.935Z,30.50
2022-08-03T17:13:38.902Z,30.40
2022-08-03T17:16:12.136Z,30.20
2022-08-03T17:18:52.373Z,30.00
2022-08-03T17:21:29.514Z,29.80
2022-08-03T17:24:12.367Z,29.60
2022-08-03T17:26:43.585Z,29.50
2022-08-03T17:29:14.944Z,29.30
2022-08-03T17:31:48.837Z,29.10
2022-08-03T17:34:19.075Z,29.00
2022-08-03T17:37:03.668Z,29.00
2022-08-03T17:39:58.851Z,28.80
2022-08-03T17:42:30.720Z,28.70
2022-08-03T17:45:02.319Z,28.60
2022-08-03T17:47:41.102Z,28.40
2022-08-03T17:50:25.255Z,28.30
2022-08-03T17:53:07.439Z,28.30
2022-08-03T17:55:56.319Z,28.20
2022-08-03T17:58:54.843Z,28.00
2022-08-03T18:01:59.529Z,28.00
2022-08-03T18:04:35.297Z,27.90
2022-08-03T18:10:03.976Z,27.70
2022-08-03T18:12:53.457Z,27.70
2022-08-03T18:15:30.474Z,27.50
2022-08-03T18:18:07.487Z,27.40
2022-08-03T18:20:42.109Z,27.20
2022-08-03T18:23:25.009Z,27.10
2022-08-03T18:26:02.731Z,27.00
2022-08-03T18:28:35.933Z,26.80
2022-08-03T18:31:06.049Z,26.60
2022-08-03T18:34:17.565Z,26.40
2022-08-03T18:36:30.560Z,26.10
2022-08-03T18:38:59.971Z,25.90
2022-08-03T18:41:32.886Z,25.70
2022-08-03T18:44:08.104Z,25.50
2022-08-03T18:46:51.463Z,25.30
2022-08-03T18:49:38.762Z,25.00
2022-08-03T18:52:15.246Z,24.80
2022-08-03T18:57:46.645Z,24.30
2022-08-03T19:03:12.486Z,23.80
2022-08-03T19:06:02.788Z,23.50
2022-08-03T19:08:44.054Z,23.30
2022-08-03T19:11:28.118Z,23.10
2022-08-03T19:13:59.307Z,22.90
2022-08-03T19:16:35.811Z,22.70
2022-08-03T19:19:10.916Z,22.60
2022-08-03T19:21:43.341Z,22.50
2022-08-03T19:24:14.263Z,22.30
2022-08-03T19:26:43.856Z,22.20
2022-08-03T19:29:18.763Z,22.00
2022-08-03T19:31:59.253Z,21.90
2022-08-03T19:34:29.746Z,21.70
2022-08-03T19:36:58.341Z,21.60
2022-08-03T19:39:27.229Z,21.50
2022-08-03T19:42:08.092Z,21.40
2022-08-03T19:44:41.418Z,21.40
2022-08-03T19:47:16.752Z,21.20
2022-08-03T19:50:04.869Z,21.10
2022-08-03T19:52:37.588Z,20.90
2022-08-03T19:55:12.528Z,20.80
2022-08-03T19:57:44.158Z,20.70
2022-08-03T20:00:19.503Z,20.60
2022-08-03T20:02:50.985Z,20.50
2022-08-03T20:05:20.140Z,20.50
2022-08-03T20:07:48.770Z,20.40
2022-08-03T20:10:18.958Z,20.30
2022-08-03T20:12:48.513Z,20.30
2022-08-03T20:15:18.359Z,20.20
2022-08-03T20:17:56.710Z,20.10
2022-08-03T20:20:30.452Z,20.00
2022-08-03T20:23:00.433Z,19.90
2022-08-03T20:25:38.311Z,19.90
2022-08-03T20:28:14.054Z,19.80
2022-08-03T20:30:46.412Z,19.70
2022-08-03T20:33:18.290Z,19.70
2022-08-03T20:35:48.999Z,19.60
2022-08-03T20:38:18.415Z,19.50
2022-08-03T20:40:47.312Z,19.40
2022-08-03T20:43:15.670Z,19.40
2022-08-03T20:46:00.074Z,19.40
2022-08-03T20:48:35.846Z,19.30
2022-08-03T20:51:19.637Z,19.30
2022-08-03T20:53:56.955Z,19.20
2022-08-03T20:56:33.607Z,19.20
2022-08-03T20:59:04.750Z,19.20
2022-08-03T21:01:36.682Z,19.20
2022-08-03T21:04:09.265Z,19.20
2022-08-03T21:06:45.649Z,19.30
2022-08-03T21:09:33.546Z,19.30
2022-08-03T21:12:13.262Z,19.30
2022-08-03T21:13:00.964Z,24.00
2022-08-03T21:13:04.520Z,27.80
2022-08-03T21:13:09.392Z,24.50
2022-08-03T21:14:52.245Z,19.40
2022-08-03T21:17:39.962Z,19.50
2022-08-03T21:20:12.239Z,19.70
2022-08-03T21:22:44.610Z,19.90
2022-08-03T21:25:16.317Z,19.90
2022-08-03T21:27:45.009Z,20.20
2022-08-03T21:30:15.528Z,20.40
2022-08-03T21:32:46.357Z,20.40
2022-08-03T21:35:16.900Z,20.50
2022-08-03T21:37:45.850Z,20.50
2022-08-03T21:40:16.028Z,20.50
2022-08-03T21:42:46.272Z,20.40
2022-08-03T21:45:17.781Z,20.40
2022-08-03T21:47:46.797Z,20.40
2022-08-03T21:50:18.153Z,20.60
2022-08-03T21:52:48.367Z,20.70
2022-08-03T21:55:20.390Z,20.90
2022-08-03T21:57:52.840Z,21.00
2022-08-03T22:00:23.229Z,21.20
2022-08-03T22:02:55.770Z,21.20
2022-08-03T22:05:28.958Z,21.20
2022-08-03T22:08:11.449Z,21.10
2022-08-03T22:10:40.475Z,21.10
2022-08-03T22:13:08.719Z,21.10
2022-08-03T22:15:36.885Z,21.20
2022-08-03T22:18:06.071Z,21.30
2022-08-03T22:20:35.688Z,21.20
2022-08-03T22:23:05.178Z,21.10
2022-08-03T22:25:35.279Z,21.00
2022-08-03T22:28:13.125Z,20.90
2022-08-03T22:30:42.678Z,21.00
2022-08-03T22:33:13.231Z,21.00
2022-08-03T22:35:47.814Z,20.90
2022-08-03T22:38:17.686Z,21.00
2022-08-03T22:40:48.188Z,21.00
2022-08-03T22:43:16.666Z,21.00
2022-08-03T22:46:09.023Z,21.20
2022-08-03T22:48:41.327Z,21.30
2022-08-03T22:51:11.815Z,21.50
2022-08-03T22:53:41.573Z,21.60
2022-08-03T22:56:10.212Z,21.60
2022-08-03T22:58:38.750Z,21.70
2022-08-03T23:01:08.927Z,21.70
2022-08-03T23:04:00.479Z,21.70
2022-08-03T23:06:35.019Z,21.60
2022-08-03T23:09:06.666Z,21.50
2022-08-03T23:11:37.837Z,21.50
2022-08-03T23:14:13.010Z,21.50
2022-08-03T23:16:43.200Z,21.50
2022-08-03T23:19:17.089Z,21.70
2022-08-03T23:22:02.432Z,21.80
2022-08-03T23:24:34.983Z,22.10
2022-08-03T23:27:04.110Z,22.50
2022-08-03T23:29:34.887Z,22.60
2022-08-03T23:32:04.006Z,22.80
2022-08-03T23:34:50.837Z,22.90
2022-08-03T23:37:21.214Z,23.00
2022-08-03T23:39:50.455Z,23.20
2022-08-03T23:42:20.609Z,23.20
2022-08-03T23:44:53.927Z,23.20
2022-08-03T23:47:22.274Z,23.40
2022-08-03T23:49:50.937Z,23.30
2022-08-03T23:52:29.569Z,23.30
2022-08-03T23:55:08.873Z,23.40
2022-08-03T23:57:49.943Z,23.30
